sensor_id;sensor_type;location;lat;lon;timestamp;pressure;altitude;pressure_sealevel;temperature;humidity
60611;BME280;46439;51.164;13.572;2023-05-02T00:00:45;99253.33;;;16.55;100.00
60611;BME280;46439;51.164;13.572;2023-05-02T00:03:14;99247.88;;;16.53;100.00
60611;BME280;46439;51.164;13.572;2023-05-02T00:05:44;99244.88;;;16.53;100.00
60611;BME280;46439;51.164;13.572;2023-05-02T00:08:13;99236.48;;;16.52;100.00
60611;BME280;46439;51.164;13.572;2023-05-02T00:10:41;99234.10;;;16.51;100.00
60611;BME280;46439;51.164;13.572;2023-05-02T00:13:10;99233.73;;;16.45;100.00
60611;BME280;46439;51.164;13.572;2023-05-02T00:15:38;99229.38;;;16.43;100.00
60611;BME280;46439;51.164;13.572;2023-05-02T00:18:07;99225.91;;;16.39;100.00
60611;BME280;46439;51.164;13.572;2023-05-02T00:20:36;99220.54;;;16.38;100.00
60611;BME280;46439;51.164;13.572;2023-05-02T00:23:06;99212.18;;;16.39;100.00
60611;BME280;46439;51.164;13.572;2023-05-02T00:25:35;99210.42;;;16.39;100.00
60611;BME280;46439;51.164;13.572;2023-05-02T00:28:04;99197.31;;;16.38;100.00
60611;BME280;46439;51.164;13.572;2023-05-02T00:30:32;99193.95;;;16.38;100.00
60611;BME280;46439;51.164;13.572;2023-05-02T00:33:01;99193.91;;;16.31;100.00
60611;BME280;46439;51.164;13.572;2023-05-02T00:35:30;99187.84;;;16.20;100.00
60611;BME280;46439;51.164;13.572;2023-05-02T00:38:01;99184.30;;;16.09;100.00
60611;BME280;46439;51.164;13.572;2023-05-02T00:40:29;99185.61;;;16.05;100.00
60611;BME280;46439;51.164;13.572;2023-05-02T00:42:58;99183.56;;;16.08;100.00
60611;BME280;46439;51.164;13.572;2023-05-02T00:45:27;99178.24;;;16.12;100.00
60611;BME280;46439;51.164;13.572;2023-05-02T00:47:56;99176.70;;;16.11;100.00
60611;BME280;46439;51.164;13.572;2023-05-02T00:50:27;99172.83;;;16.16;100.00
60611;BME280;46439;51.164;13.572;2023-05-02T00:52:56;99164.46;;;16.19;100.00
60611;BME280;46439;51.164;13.572;2023-05-02T00:55:24;99159.46;;;16.19;100.00
60611;BME280;46439;51.164;13.572;2023-05-02T00:57:53;99155.23;;;16.21;100.00
60611;BME280;46439;51.164;13.572;2023-05-02T01:00:23;99156.19;;;16.19;100.00
60611;BME280;46439;51.164;13.572;2023-05-02T01:03:04;99149.14;;;16.20;100.00
60611;BME280;46439;51.164;13.572;2023-05-02T01:05:40;99143.45;;;16.20;100.00
60611;BME280;46439;51.164;13.572;2023-05-02T01:08:18;99135.59;;;16.16;100.00
60611;BME280;46439;51.164;13.572;2023-05-02T01:10:57;99129.31;;;16.11;100.00
60611;BME280;46439;51.164;13.572;2023-05-02T01:13:33;99122.52;;;16.07;100.00
60611;BME280;46439;51.164;13.572;2023-05-02T01:16:03;99120.85;;;16.08;100.00
60611;BME280;46439;51.164;13.572;2023-05-02T01:18:35;99120.21;;;16.16;100.00
60611;BME280;46439;51.164;13.572;2023-05-02T01:21:07;99119.30;;;16.16;100.00
60611;BME280;46439;51.164;13.572;2023-05-02T01:23:45;99107.39;;;16.17;100.00
60611;BME280;46439;51.164;13.572;2023-05-02T01:26:23;99103.17;;;16.16;100.00
60611;BME280;46439;51.164;13.572;2023-05-02T01:28:59;99100.61;;;16.13;100.00
60611;BME280;46439;51.164;13.572;2023-05-02T01:31:30;99098.61;;;16.11;100.00
60611;BME280;46439;51.164;13.572;2023-05-02T01:34:01;99092.80;;;16.08;100.00
60611;BME280;46439;51.164;13.572;2023-05-02T01:36:32;99092.48;;;16.05;100.00
60611;BME280;46439;51.164;13.572;2023-05-02T01:39:03;99087.55;;;16.04;100.00
60611;BME280;46439;51.164;13.572;2023-05-02T01:41:35;99084.58;;;16.05;100.00
60611;BME280;46439;51.164;13.572;2023-05-02T01:44:06;99083.88;;;16.03;100.00
60611;BME280;46439;51.164;13.572;2023-05-02T01:46:37;99080.04;;;16.00;100.00
60611;BME280;46439;51.164;13.572;2023-05-02T01:49:06;99073.31;;;15.96;100.00
60611;BME280;46439;51.164;13.572;2023-05-02T01:51:43;99065.18;;;15.96;100.00
60611;BME280;46439;51.164;13.572;2023-05-02T01:54:14;99068.31;;;15.97;100.00
60611;BME280;46439;51.164;13.572;2023-05-02T01:56:43;99065.55;;;15.94;100.00
60611;BME280;46439;51.164;13.572;2023-05-02T01:59:17;99068.76;;;15.90;100.00
60611;BME280;46439;51.164;13.572;2023-05-02T02:01:49;99067.16;;;15.83;100.00
60611;BME280;46439;51.164;13.572;2023-05-02T02:04:20;99069.56;;;15.85;100.00
60611;BME280;46439;51.164;13.572;2023-05-02T02:06:52;99069.30;;;15.86;100.00
60611;BME280;46439;51.164;13.572;2023-05-02T02:09:22;99062.35;;;15.86;100.00
60611;BME280;46439;51.164;13.572;2023-05-02T02:11:59;99058.98;;;15.82;100.00
60611;BME280;46439;51.164;13.572;2023-05-02T02:14:35;99055.23;;;15.78;100.00
60611;BME280;46439;51.164;13.572;2023-05-02T02:17:08;99054.71;;;15.74;100.00
60611;BME280;46439;51.164;13.572;2023-05-02T02:19:41;99054.59;;;15.69;100.00
60611;BME280;46439;51.164;13.572;2023-05-02T02:22:12;99058.80;;;15.65;100.00
60611;BME280;46439;51.164;13.572;2023-05-02T02:24:44;99061.43;;;15.58;100.00
60611;BME280;46439;51.164;13.572;2023-05-02T02:27:13;99057.98;;;15.56;100.00
60611;BME280;46439;51.164;13.572;2023-05-02T02:29:42;99059.61;;;15.53;100.00
60611;BME280;46439;51.164;13.572;2023-05-02T02:32:11;99054.09;;;15.48;100.00
60611;BME280;46439;51.164;13.572;2023-05-02T02:34:40;99048.52;;;15.45;100.00
60611;BME280;46439;51.164;13.572;2023-05-02T02:37:14;99050.77;;;15.44;100.00
60611;BME280;46439;51.164;13.572;2023-05-02T02:39:49;99047.86;;;15.36;100.00
60611;BME280;46439;51.164;13.572;2023-05-02T02:42:27;99049.76;;;15.30;100.00
60611;BME280;46439;51.164;13.572;2023-05-02T02:45:03;99052.73;;;15.25;100.00
60611;BME280;46439;51.164;13.572;2023-05-02T02:47:38;99055.45;;;15.21;100.00
60611;BME280;46439;51.164;13.572;2023-05-02T02:50:17;99057.92;;;15.18;100.00
60611;BME280;46439;51.164;13.572;2023-05-02T02:52:53;99057.98;;;15.18;100.00
60611;BME280;46439;51.164;13.572;2023-05-02T02:55:33;99054.36;;;15.15;100.00
60611;BME280;46439;51.164;13.572;2023-05-02T02:58:11;99052.35;;;15.13;100.00
60611;BME280;46439;51.164;13.572;2023-05-02T03:00:41;99057.66;;;15.12;100.00
60611;BME280;46439;51.164;13.572;2023-05-02T03:03:11;99055.90;;;15.13;100.00
60611;BME280;46439;51.164;13.572;2023-05-02T03:05:41;99055.94;;;15.15;100.00
60611;BME280;46439;51.164;13.572;2023-05-02T03:08:10;99057.02;;;15.13;100.00
60611;BME280;46439;51.164;13.572;2023-05-02T03:10:39;99053.70;;;15.06;100.00
60611;BME280;46439;51.164;13.572;2023-05-02T03:13:08;99053.63;;;15.04;100.00
60611;BME280;46439;51.164;13.572;2023-05-02T03:18:38;99054.22;;;14.95;100.00
60611;BME280;46439;51.164;13.572;2023-05-02T03:21:07;99055.36;;;14.88;100.00
60611;BME280;46439;51.164;13.572;2023-05-02T03:23:36;99052.17;;;14.85;100.00
60611;BME280;46439;51.164;13.572;2023-05-02T03:26:04;99045.70;;;14.78;100.00
60611;BME280;46439;51.164;13.572;2023-05-02T03:28:33;99046.95;;;14.75;100.00
60611;BME280;46439;51.164;13.572;2023-05-02T03:31:01;99042.53;;;14.78;100.00
60611;BME280;46439;51.164;13.572;2023-05-02T03:33:30;99042.59;;;14.80;100.00
60611;BME280;46439;51.164;13.572;2023-05-02T03:35:59;99037.63;;;14.75;100.00
60611;BME280;46439;51.164;13.572;2023-05-02T03:38:29;99043.70;;;14.64;100.00
60611;BME280;46439;51.164;13.572;2023-05-02T03:40:58;99039.15;;;14.55;100.00
60611;BME280;46439;51.164;13.572;2023-05-02T03:43:27;99039.41;;;14.50;100.00
60611;BME280;46439;51.164;13.572;2023-05-02T03:45:55;99043.53;;;14.44;100.00
60611;BME280;46439;51.164;13.572;2023-05-02T03:48:24;99041.78;;;14.36;100.00
60611;BME280;46439;51.164;13.572;2023-05-02T03:50:54;99041.34;;;14.30;100.00
60611;BME280;46439;51.164;13.572;2023-05-02T03:53:23;99044.52;;;14.26;100.00
60611;BME280;46439;51.164;13.572;2023-05-02T03:55:52;99045.52;;;14.14;100.00
60611;BME280;46439;51.164;13.572;2023-05-02T03:58:21;99041.03;;;14.08;100.00
60611;BME280;46439;51.164;13.572;2023-05-02T04:00:50;99046.73;;;14.04;100.00
60611;BME280;46439;51.164;13.572;2023-05-02T04:03:21;99053.33;;;14.01;100.00
60611;BME280;46439;51.164;13.572;2023-05-02T04:05:51;99057.50;;;13.96;100.00
60611;BME280;46439;51.164;13.572;2023-05-02T04:08:20;99055.82;;;13.94;100.00
60611;BME280;46439;51.164;13.572;2023-05-02T04:10:51;99059.94;;;13.90;100.00
60611;BME280;46439;51.164;13.572;2023-05-02T04:13:21;99064.83;;;13.84;100.00
60611;BME280;46439;51.164;13.572;2023-05-02T04:15:50;99063.48;;;13.80;100.00
60611;BME280;46439;51.164;13.572;2023-05-02T04:18:18;99063.10;;;13.78;100.00
60611;BME280;46439;51.164;13.572;2023-05-02T04:20:47;99059.27;;;13.77;100.00
60611;BME280;46439;51.164;13.572;2023-05-02T04:23:16;99063.60;;;13.77;100.00
60611;BME280;46439;51.164;13.572;2023-05-02T04:25:52;99070.80;;;13.75;100.00
60611;BME280;46439;51.164;13.572;2023-05-02T04:28:22;99068.44;;;13.71;100.00
60611;BME280;46439;51.164;13.572;2023-05-02T04:30:51;99073.31;;;13.68;100.00
60611;BME280;46439;51.164;13.572;2023-05-02T04:33:20;99076.96;;;13.65;100.00
60611;BME280;46439;51.164;13.572;2023-05-02T04:35:48;99079.90;;;13.67;100.00
60611;BME280;46439;51.164;13.572;2023-05-02T04:38:17;99084.96;;;13.66;100.00
60611;BME280;46439;51.164;13.572;2023-05-02T04:40:45;99090.86;;;13.70;100.00
60611;BME280;46439;51.164;13.572;2023-05-02T04:43:14;99096.06;;;13.71;100.00
60611;BME280;46439;51.164;13.572;2023-05-02T04:45:42;99098.90;;;13.73;100.00
60611;BME280;46439;51.164;13.572;2023-05-02T04:48:11;99092.36;;;13.74;100.00
60611;BME280;46439;51.164;13.572;2023-05-02T04:50:40;99098.02;;;13.78;100.00
60611;BME280;46439;51.164;13.572;2023-05-02T04:53:08;99101.71;;;13.82;100.00
60611;BME280;46439;51.164;13.572;2023-05-02T04:55:36;99098.84;;;13.84;100.00
60611;BME280;46439;51.164;13.572;2023-05-02T04:58:05;99102.61;;;13.90;100.00
60611;BME280;46439;51.164;13.572;2023-05-02T05:00:33;99106.63;;;13.93;100.00
60611;BME280;46439;51.164;13.572;2023-05-02T05:03:02;99103.14;;;14.00;100.00
60611;BME280;46439;51.164;13.572;2023-05-02T05:05:30;99108.00;;;14.02;100.00
60611;BME280;46439;51.164;13.572;2023-05-02T05:07:58;99108.95;;;14.04;100.00
60611;BME280;46439;51.164;13.572;2023-05-02T05:10:27;99110.72;;;14.08;100.00
60611;BME280;46439;51.164;13.572;2023-05-02T05:12:55;99112.31;;;14.10;100.00
60611;BME280;46439;51.164;13.572;2023-05-02T05:15:24;99117.66;;;14.11;100.00
60611;BME280;46439;51.164;13.572;2023-05-02T05:17:53;99116.56;;;14.12;100.00
60611;BME280;46439;51.164;13.572;2023-05-02T05:20:21;99122.37;;;14.17;100.00
60611;BME280;46439;51.164;13.572;2023-05-02T05:22:50;99119.17;;;14.28;100.00
60611;BME280;46439;51.164;13.572;2023-05-02T05:25:19;99121.29;;;14.34;100.00
60611;BME280;46439;51.164;13.572;2023-05-02T05:27:47;99123.98;;;14.36;100.00
60611;BME280;46439;51.164;13.572;2023-05-02T05:30:16;99121.16;;;14.39;100.00
60611;BME280;46439;51.164;13.572;2023-05-02T05:32:44;99125.89;;;14.47;100.00
60611;BME280;46439;51.164;13.572;2023-05-02T05:35:13;99128.91;;;14.53;100.00
60611;BME280;46439;51.164;13.572;2023-05-02T05:37:42;99130.64;;;14.55;100.00
60611;BME280;46439;51.164;13.572;2023-05-02T05:40:12;99128.34;;;14.56;100.00
60611;BME280;46439;51.164;13.572;2023-05-02T05:42:41;99130.47;;;14.58;100.00
60611;BME280;46439;51.164;13.572;2023-05-02T05:45:11;99132.63;;;14.60;100.00
60611;BME280;46439;51.164;13.572;2023-05-02T05:47:39;99131.47;;;14.57;100.00
60611;BME280;46439;51.164;13.572;2023-05-02T05:50:09;99127.54;;;14.56;100.00
60611;BME280;46439;51.164;13.572;2023-05-02T05:52:38;99132.25;;;14.54;100.00
60611;BME280;46439;51.164;13.572;2023-05-02T05:55:08;99134.48;;;14.51;100.00
60611;BME280;46439;51.164;13.572;2023-05-02T05:57:36;99139.27;;;14.50;100.00
60611;BME280;46439;51.164;13.572;2023-05-02T06:00:07;99142.86;;;14.53;100.00
60611;BME280;46439;51.164;13.572;2023-05-02T06:02:37;99145.80;;;14.55;100.00
60611;BME280;46439;51.164;13.572;2023-05-02T06:05:07;99145.70;;;14.53;100.00
60611;BME280;46439;51.164;13.572;2023-05-02T06:07:35;99145.71;;;14.52;100.00
60611;BME280;46439;51.164;13.572;2023-05-02T06:10:05;99147.69;;;14.56;100.00
60611;BME280;46439;51.164;13.572;2023-05-02T06:12:34;99152.88;;;14.58;100.00
60611;BME280;46439;51.164;13.572;2023-05-02T06:15:03;99157.38;;;14.59;100.00
60611;BME280;46439;51.164;13.572;2023-05-02T06:17:31;99161.05;;;14.60;100.00
60611;BME280;46439;51.164;13.572;2023-05-02T06:20:00;99161.14;;;14.63;100.00
60611;BME280;46439;51.164;13.572;2023-05-02T06:22:28;99163.29;;;14.69;100.00
60611;BME280;46439;51.164;13.572;2023-05-02T06:24:57;99166.11;;;14.68;100.00
60611;BME280;46439;51.164;13.572;2023-05-02T06:27:25;99171.48;;;14.69;100.00
60611;BME280;46439;51.164;13.572;2023-05-02T06:29:54;99175.63;;;14.72;100.00
60611;BME280;46439;51.164;13.572;2023-05-02T06:32:23;99184.71;;;14.75;100.00
60611;BME280;46439;51.164;13.572;2023-05-02T06:34:51;99184.06;;;14.76;100.00
60611;BME280;46439;51.164;13.572;2023-05-02T06:37:20;99188.20;;;14.77;100.00
60611;BME280;46439;51.164;13.572;2023-05-02T06:39:49;99198.24;;;14.84;100.00
60611;BME280;46439;51.164;13.572;2023-05-02T06:42:17;99201.16;;;14.93;100.00
60611;BME280;46439;51.164;13.572;2023-05-02T06:44:46;99202.44;;;15.01;100.00
60611;BME280;46439;51.164;13.572;2023-05-02T06:47:14;99203.86;;;15.07;100.00
60611;BME280;46439;51.164;13.572;2023-05-02T06:49:43;99206.31;;;15.15;100.00
60611;BME280;46439;51.164;13.572;2023-05-02T06:52:11;99206.73;;;15.18;100.00
60611;BME280;46439;51.164;13.572;2023-05-02T06:54:40;99208.18;;;15.23;100.00
60611;BME280;46439;51.164;13.572;2023-05-02T06:57:09;99211.64;;;15.30;100.00
60611;BME280;46439;51.164;13.572;2023-05-02T06:59:38;99215.05;;;15.33;100.00
60611;BME280;46439;51.164;13.572;2023-05-02T07:02:06;99216.55;;;15.30;100.00
60611;BME280;46439;51.164;13.572;2023-05-02T07:04:35;99222.27;;;15.30;100.00
60611;BME280;46439;51.164;13.572;2023-05-02T07:07:03;99224.19;;;15.21;100.00
60611;BME280;46439;51.164;13.572;2023-05-02T07:09:33;99226.96;;;15.12;100.00
60611;BME280;46439;51.164;13.572;2023-05-02T07:12:02;99234.84;;;15.10;100.00
60611;BME280;46439;51.164;13.572;2023-05-02T07:14:31;99240.16;;;15.10;100.00
60611;BME280;46439;51.164;13.572;2023-05-02T07:16:59;99243.20;;;15.14;100.00
60611;BME280;46439;51.164;13.572;2023-05-02T07:19:28;99244.65;;;15.15;100.00
60611;BME280;46439;51.164;13.572;2023-05-02T07:21:56;99246.01;;;15.22;100.00
60611;BME280;46439;51.164;13.572;2023-05-02T07:24:25;99249.52;;;15.23;100.00
60611;BME280;46439;51.164;13.572;2023-05-02T07:26:54;99256.27;;;15.20;100.00
60611;BME280;46439;51.164;13.572;2023-05-02T07:29:22;99259.27;;;15.14;100.00
60611;BME280;46439;51.164;13.572;2023-05-02T07:31:51;99264.64;;;15.05;100.00
60611;BME280;46439;51.164;13.572;2023-05-02T07:34:19;99264.55;;;15.00;100.00
60611;BME280;46439;51.164;13.572;2023-05-02T07:36:47;99271.11;;;15.02;100.00
60611;BME280;46439;51.164;13.572;2023-05-02T07:39:17;99275.48;;;14.99;100.00
60611;BME280;46439;51.164;13.572;2023-05-02T07:41:45;99277.60;;;14.95;100.00
60611;BME280;46439;51.164;13.572;2023-05-02T07:44:13;99283.91;;;14.95;100.00
60611;BME280;46439;51.164;13.572;2023-05-02T07:46:42;99284.73;;;14.97;100.00
60611;BME280;46439;51.164;13.572;2023-05-02T07:49:10;99287.02;;;15.03;100.00
60611;BME280;46439;51.164;13.572;2023-05-02T07:51:39;99286.89;;;15.16;100.00
60611;BME280;46439;51.164;13.572;2023-05-02T07:54:16;99286.48;;;15.28;100.00
60611;BME280;46439;51.164;13.572;2023-05-02T07:56:45;99286.72;;;15.44;100.00
60611;BME280;46439;51.164;13.572;2023-05-02T07:59:16;99290.30;;;15.55;100.00
60611;BME280;46439;51.164;13.572;2023-05-02T08:01:45;99293.73;;;15.63;100.00
60611;BME280;46439;51.164;13.572;2023-05-02T08:04:14;99292.58;;;15.71;100.00
60611;BME280;46439;51.164;13.572;2023-05-02T08:06:44;99296.41;;;15.79;100.00
60611;BME280;46439;51.164;13.572;2023-05-02T08:09:13;99297.84;;;15.85;100.00
60611;BME280;46439;51.164;13.572;2023-05-02T08:11:41;99301.04;;;15.92;100.00
60611;BME280;46439;51.164;13.572;2023-05-02T08:14:09;99305.73;;;15.94;100.00
60611;BME280;46439;51.164;13.572;2023-05-02T08:16:38;99311.00;;;15.94;100.00
60611;BME280;46439;51.164;13.572;2023-05-02T08:19:06;99312.93;;;15.93;100.00
60611;BME280;46439;51.164;13.572;2023-05-02T08:21:35;99315.92;;;15.95;100.00
60611;BME280;46439;51.164;13.572;2023-05-02T08:24:04;99321.36;;;15.93;100.00
60611;BME280;46439;51.164;13.572;2023-05-02T08:26:33;99324.42;;;15.92;100.00
60611;BME280;46439;51.164;13.572;2023-05-02T08:29:01;99323.98;;;15.93;100.00
60611;BME280;46439;51.164;13.572;2023-05-02T08:31:31;99325.32;;;15.94;100.00
60611;BME280;46439;51.164;13.572;2023-05-02T08:34:00;99328.69;;;15.92;100.00
60611;BME280;46439;51.164;13.572;2023-05-02T08:36:29;99331.67;;;15.92;100.00
60611;BME280;46439;51.164;13.572;2023-05-02T08:38:57;99339.75;;;15.92;100.00
60611;BME280;46439;51.164;13.572;2023-05-02T08:41:28;99337.14;;;15.85;100.00
60611;BME280;46439;51.164;13.572;2023-05-02T08:43:59;99336.20;;;15.84;100.00
60611;BME280;46439;51.164;13.572;2023-05-02T08:46:29;99337.36;;;15.85;100.00
60611;BME280;46439;51.164;13.572;2023-05-02T08:48:58;99342.86;;;15.80;100.00
60611;BME280;46439;51.164;13.572;2023-05-02T08:51:28;99346.74;;;15.74;100.00
60611;BME280;46439;51.164;13.572;2023-05-02T08:53:57;99350.16;;;15.76;100.00
60611;BME280;46439;51.164;13.572;2023-05-02T08:56:27;99351.56;;;15.81;100.00
60611;BME280;46439;51.164;13.572;2023-05-02T08:58:56;99353.98;;;15.84;100.00
60611;BME280;46439;51.164;13.572;2023-05-02T09:01:27;99355.89;;;15.87;100.00
60611;BME280;46439;51.164;13.572;2023-05-02T09:03:57;99354.02;;;15.89;100.00
60611;BME280;46439;51.164;13.572;2023-05-02T09:06:27;99357.11;;;15.96;100.00
60611;BME280;46439;51.164;13.572;2023-05-02T09:08:59;99357.48;;;16.04;100.00
60611;BME280;46439;51.164;13.572;2023-05-02T09:11:29;99355.08;;;16.15;100.00
60611;BME280;46439;51.164;13.572;2023-05-02T09:13:58;99364.15;;;16.22;100.00
60611;BME280;46439;51.164;13.572;2023-05-02T09:16:38;99372.02;;;16.25;100.00
60611;BME280;46439;51.164;13.572;2023-05-02T09:19:07;99368.89;;;16.26;100.00
60611;BME280;46439;51.164;13.572;2023-05-02T09:21:40;99370.52;;;16.26;100.00
60611;BME280;46439;51.164;13.572;2023-05-02T09:24:19;99374.95;;;16.33;100.00
60611;BME280;46439;51.164;13.572;2023-05-02T09:26:57;99373.35;;;16.40;100.00
60611;BME280;46439;51.164;13.572;2023-05-02T09:29:27;99373.30;;;16.46;100.00
60611;BME280;46439;51.164;13.572;2023-05-02T09:31:57;99372.70;;;16.55;100.00
60611;BME280;46439;51.164;13.572;2023-05-02T09:34:26;99373.87;;;16.64;100.00
60611;BME280;46439;51.164;13.572;2023-05-02T09:36:55;99372.04;;;16.68;100.00
60611;BME280;46439;51.164;13.572;2023-05-02T09:39:25;99375.89;;;16.72;100.00
60611;BME280;46439;51.164;13.572;2023-05-02T09:41:57;99376.83;;;16.83;100.00
60611;BME280;46439;51.164;13.572;2023-05-02T09:44:27;99370.30;;;16.94;100.00
60611;BME280;46439;51.164;13.572;2023-05-02T09:47:03;99362.84;;;17.08;100.00
60611;BME280;46439;51.164;13.572;2023-05-02T09:49:41;99362.80;;;17.23;100.00
60611;BME280;46439;51.164;13.572;2023-05-02T09:52:14;99363.74;;;17.35;100.00
60611;BME280;46439;51.164;13.572;2023-05-02T09:54:42;99364.27;;;17.39;100.00
60611;BME280;46439;51.164;13.572;2023-05-02T09:57:11;99366.34;;;17.38;100.00
60611;BME280;46439;51.164;13.572;2023-05-02T09:59:41;99365.72;;;17.40;100.00
60611;BME280;46439;51.164;13.572;2023-05-02T10:02:20;99368.69;;;17.38;100.00
60611;BME280;46439;51.164;13.572;2023-05-02T10:04:50;99367.59;;;17.39;100.00
60611;BME280;46439;51.164;13.572;2023-05-02T10:07:21;99366.67;;;17.39;100.00
60611;BME280;46439;51.164;13.572;2023-05-02T10:09:51;99373.13;;;17.39;100.00
60611;BME280;46439;51.164;13.572;2023-05-02T10:12:20;99371.91;;;17.39;100.00
60611;BME280;46439;51.164;13.572;2023-05-02T10:14:55;99373.80;;;17.38;100.00
60611;BME280;46439;51.164;13.572;2023-05-02T10:17:29;99381.16;;;17.35;100.00
60611;BME280;46439;51.164;13.572;2023-05-02T10:20:02;99379.43;;;17.34;100.00
60611;BME280;46439;51.164;13.572;2023-05-02T10:22:33;99382.45;;;17.41;100.00
60611;BME280;46439;51.164;13.572;2023-05-02T10:25:04;99383.36;;;17.51;100.00
60611;BME280;46439;51.164;13.572;2023-05-02T10:27:33;99382.25;;;17.55;100.00
60611;BME280;46439;51.164;13.572;2023-05-02T10:30:02;99386.30;;;17.51;100.00
60611;BME280;46439;51.164;13.572;2023-05-02T10:32:34;99385.86;;;17.45;100.00
60611;BME280;46439;51.164;13.572;2023-05-02T10:35:05;99386.03;;;17.45;100.00
60611;BME280;46439;51.164;13.572;2023-05-02T10:37:37;99384.23;;;17.47;100.00
60611;BME280;46439;51.164;13.572;2023-05-02T10:40:11;99384.83;;;17.48;100.00
60611;BME280;46439;51.164;13.572;2023-05-02T10:42:42;99390.94;;;17.47;100.00
60611;BME280;46439;51.164;13.572;2023-05-02T10:45:28;99393.02;;;17.45;100.00
60611;BME280;46439;51.164;13.572;2023-05-02T10:48:13;99393.59;;;17.49;100.00
60611;BME280;46439;51.164;13.572;2023-05-02T10:50:46;99393.99;;;17.50;100.00
60611;BME280;46439;51.164;13.572;2023-05-02T10:53:38;99394.04;;;17.57;100.00
60611;BME280;46439;51.164;13.572;2023-05-02T10:56:17;99395.01;;;17.61;100.00
60611;BME280;46439;51.164;13.572;2023-05-02T10:58:49;99394.95;;;17.69;100.00
60611;BME280;46439;51.164;13.572;2023-05-02T11:01:37;99395.96;;;17.77;100.00
60611;BME280;46439;51.164;13.572;2023-05-02T11:04:10;99394.10;;;17.82;100.00
60611;BME280;46439;51.164;13.572;2023-05-02T11:09:50;99403.14;;;17.69;100.00
60611;BME280;46439;51.164;13.572;2023-05-02T11:12:44;99408.23;;;17.62;100.00
60611;BME280;46439;51.164;13.572;2023-05-02T11:15:14;99409.86;;;17.66;100.00
60611;BME280;46439;51.164;13.572;2023-05-02T11:18:02;99406.89;;;17.75;100.00
60611;BME280;46439;51.164;13.572;2023-05-02T11:20:31;99399.23;;;17.88;100.00
60611;BME280;46439;51.164;13.572;2023-05-02T11:23:20;99398.45;;;18.03;100.00
60611;BME280;46439;51.164;13.572;2023-05-02T11:25:50;99399.50;;;18.06;100.00
60611;BME280;46439;51.164;13.572;2023-05-02T11:28:40;99409.33;;;18.06;100.00
60611;BME280;46439;51.164;13.572;2023-05-02T11:31:51;99413.68;;;17.97;100.00
60611;BME280;46439;51.164;13.572;2023-05-02T11:33:59;99413.17;;;17.89;100.00
60611;BME280;46439;51.164;13.572;2023-05-02T11:36:32;99416.43;;;17.84;100.00
60611;BME280;46439;51.164;13.572;2023-05-02T11:39:02;99425.45;;;17.82;100.00
60611;BME280;46439;51.164;13.572;2023-05-02T11:41:48;99425.30;;;17.74;100.00
60611;BME280;46439;51.164;13.572;2023-05-02T11:44:18;99432.67;;;17.66;100.00
60611;BME280;46439;51.164;13.572;2023-05-02T11:46:46;99434.50;;;17.65;100.00
60611;BME280;46439;51.164;13.572;2023-05-02T11:49:16;99435.10;;;17.62;100.00
60611;BME280;46439;51.164;13.572;2023-05-02T11:51:44;99432.77;;;17.68;100.00
60611;BME280;46439;51.164;13.572;2023-05-02T11:54:19;99435.16;;;17.72;100.00
60611;BME280;46439;51.164;13.572;2023-05-02T11:56:49;99439.21;;;17.68;100.00
60611;BME280;46439;51.164;13.572;2023-05-02T11:59:17;99440.79;;;17.67;100.00
60611;BME280;46439;51.164;13.572;2023-05-02T12:01:51;99439.31;;;17.67;100.00
60611;BME280;46439;51.164;13.572;2023-05-02T12:04:20;99437.06;;;17.72;100.00
60611;BME280;46439;51.164;13.572;2023-05-02T12:06:58;99429.83;;;17.89;100.00
60611;BME280;46439;51.164;13.572;2023-05-02T12:09:26;99432.04;;;18.01;100.00
60611;BME280;46439;51.164;13.572;2023-05-02T12:11:55;99434.41;;;18.04;100.00
60611;BME280;46439;51.164;13.572;2023-05-02T12:14:30;99438.14;;;17.96;100.00
60611;BME280;46439;51.164;13.572;2023-05-02T12:17:02;99434.04;;;17.92;100.00
60611;BME280;46439;51.164;13.572;2023-05-02T12:19:31;99432.21;;;18.01;100.00
60611;BME280;46439;51.164;13.572;2023-05-02T12:22:00;99430.58;;;18.14;100.00
60611;BME280;46439;51.164;13.572;2023-05-02T12:24:28;99429.10;;;18.22;100.00
60611;BME280;46439;51.164;13.572;2023-05-02T12:27:11;99432.14;;;18.29;100.00
60611;BME280;46439;51.164;13.572;2023-05-02T12:29:41;99431.77;;;18.30;100.00
60611;BME280;46439;51.164;13.572;2023-05-02T12:32:10;99430.79;;;18.35;100.00
60611;BME280;46439;51.164;13.572;2023-05-02T12:34:40;99422.66;;;18.47;100.00
60611;BME280;46439;51.164;13.572;2023-05-02T12:37:09;99425.77;;;18.56;100.00
60611;BME280;46439;51.164;13.572;2023-05-02T12:39:40;99421.20;;;18.59;100.00
60611;BME280;46439;51.164;13.572;2023-05-02T12:42:13;99416.49;;;18.68;100.00
60611;BME280;46439;51.164;13.572;2023-05-02T12:44:43;99421.70;;;18.86;100.00
60611;BME280;46439;51.164;13.572;2023-05-02T12:47:13;99416.06;;;18.88;100.00
60611;BME280;46439;51.164;13.572;2023-05-02T12:49:53;99419.70;;;18.79;100.00
60611;BME280;46439;51.164;13.572;2023-05-02T12:55:17;99419.27;;;18.74;100.00
60611;BME280;46439;51.164;13.572;2023-05-02T12:57:46;99426.72;;;18.68;100.00
60611;BME280;46439;51.164;13.572;2023-05-02T13:00:16;99426.62;;;18.63;100.00
60611;BME280;46439;51.164;13.572;2023-05-02T13:02:48;99430.88;;;18.57;100.00
60611;BME280;46439;51.164;13.572;2023-05-02T13:05:17;99437.88;;;18.53;100.00
60611;BME280;46439;51.164;13.572;2023-05-02T13:07:46;99441.43;;;18.51;100.00